Arklow Raider — EIXS — position and weather

sailwx.info

Track history (hours):
 
Tides and Currents Weather Stations Pressure Air Temp Water Temp Dewpoint Dewpoint Depression Visibility Wind Speed Wind Dir Waves Ship Positions

Arklow Raider

Last reported at 2015-May-23 22:08 UTC. Time now 2015-May-24 17:15 UTC.
Position N 41°10' W 009°49'.

Length 90 m; draft 3.5 m.

Type: Ship. MMSI: 250001268.

Date/timePositionNaut miles runAvg speedWind from/ knotsBaromVisibWave heightAir tempDewpointWater temp
2015-May-23 22:08N 41°10' W 009°49'30 6.3
2015-May-23 17:21N 40°40' W 009°49'9 7.1
2015-May-23 16:08N 40°31' W 009°49'4 7.2
2015-May-23 15:33N 40°27' W 009°49'7 6.8
2015-May-23 14:33N 40°20' W 009°50'7 6.8
2015-May-23 13:33N 40°14' W 009°50'7 7.2
2015-May-23 12:33N 40°06' W 009°49'7 7.2
2015-May-23 11:33N 39°59' W 009°50'7 6.9
2015-May-23 10:32N 39°52' W 009°50'14 7.1
2015-May-23 08:33N 39°38' W 009°51'7 7.2
2015-May-23 07:33N 39°31' W 009°51'8 7.7
2015-May-23 06:33N 39°23' W 009°50'7 7.4
2015-May-23 05:33N 39°16' W 009°50'7 7.5
2015-May-23 04:33N 39°08' W 009°50'8 7.8
2015-May-23 03:33N 39°00' W 009°50'8 8.2
2015-May-23 02:33N 38°52' W 009°51'9 8.9
2015-May-23 01:33N 38°43' W 009°51'9 9.0
2015-May-23 00:33N 38°35' W 009°48'9 8.6
2015-May-22 23:33N 38°26' W 009°45'9 8.4
2015-May-22 22:33N 38°18' W 009°43'8 8.5
2015-May-22 21:33N 38°10' W 009°41'8 8.0
2015-May-22 20:33N 38°02' W 009°38'7 7.4
2015-May-22 19:33N 37°55' W 009°36'8 7.9
2015-May-22 18:33N 37°47' W 009°34'9 8.8
2015-May-22 17:33N 37°38' W 009°32'10 9.6
2015-May-22 16:33N 37°29' W 009°29'10 9.7
2015-May-22 15:33N 37°20' W 009°26'1010.0
2015-May-22 14:33N 37°10' W 009°24'10 9.9
2015-May-22 13:32N 36°60' W 009°21'29 9.6
2015-May-22 10:32N 36°43' W 008°52'1111.3
2015-May-22 09:33N 36°44' W 008°38'  
2015-May-17 21:33N 36°35' W 008°34'1410.7
2015-May-17 20:12N 36°33' W 008°52'26 9.9
2015-May-17 17:31N 36°40' W 009°24'3110.5
2015-May-17 14:33N 37°09' W 009°39'2311.3
2015-May-17 12:33N 37°30' W 009°46'1211.7
2015-May-17 11:33N 37°42' W 009°49'1211.9
2015-May-17 10:33N 37°53' W 009°52'1211.5
2015-May-17 09:33N 38°04' W 009°55'1111.4
2015-May-17 08:33N 38°16' W 009°59'1211.4
2015-May-17 07:32N 38°27' W 010°02'1111.1
2015-May-17 06:33N 38°38' W 010°05'1110.8
2015-May-17 05:33N 38°48' W 010°06'  
2015-May-14 00:32N 50°06' W 002°22'1212.5
2015-May-13 23:33N 50°10' W 002°03'1413.7
2015-May-13 22:34N 50°14' W 001°43'  
Track history (hours):
 
Tides and Currents Weather Stations Pressure Air Temp Water Temp Dewpoint Dewpoint Depression Visibility Wind Speed Wind Dir Waves Ship Positions

Arklow Raider

Last reported at 2015-May-23 22:08 UTC. Time now 2015-May-24 17:15 UTC.
Position N 41°10' W 009°49'.

Length 90 m; draft 3.5 m.

Type: Ship. MMSI: 250001268.

Date/timePositionNaut miles runAvg speedWind from/ knotsBaromVisibWave heightAir tempDewpointWater temp
2015-May-23 22:08N 41°10' W 009°49'30 6.3
2015-May-23 17:21N 40°40' W 009°49'9 7.1
2015-May-23 16:08N 40°31' W 009°49'4 7.2
2015-May-23 15:33N 40°27' W 009°49'7 6.8
2015-May-23 14:33N 40°20' W 009°50'7 6.8
2015-May-23 13:33N 40°14' W 009°50'7 7.2
2015-May-23 12:33N 40°06' W 009°49'7 7.2
2015-May-23 11:33N 39°59' W 009°50'7 6.9
2015-May-23 10:32N 39°52' W 009°50'14 7.1
2015-May-23 08:33N 39°38' W 009°51'7 7.2
2015-May-23 07:33N 39°31' W 009°51'8 7.7
2015-May-23 06:33N 39°23' W 009°50'7 7.4
2015-May-23 05:33N 39°16' W 009°50'7 7.5
2015-May-23 04:33N 39°08' W 009°50'8 7.8
2015-May-23 03:33N 39°00' W 009°50'8 8.2
2015-May-23 02:33N 38°52' W 009°51'9 8.9
2015-May-23 01:33N 38°43' W 009°51'9 9.0
2015-May-23 00:33N 38°35' W 009°48'9 8.6
2015-May-22 23:33N 38°26' W 009°45'9 8.4
2015-May-22 22:33N 38°18' W 009°43'8 8.5
2015-May-22 21:33N 38°10' W 009°41'8 8.0
2015-May-22 20:33N 38°02' W 009°38'7 7.4
2015-May-22 19:33N 37°55' W 009°36'8 7.9
2015-May-22 18:33N 37°47' W 009°34'9 8.8
2015-May-22 17:33N 37°38' W 009°32'10 9.6
2015-May-22 16:33N 37°29' W 009°29'10 9.7
2015-May-22 15:33N 37°20' W 009°26'1010.0
2015-May-22 14:33N 37°10' W 009°24'10 9.9
2015-May-22 13:32N 36°60' W 009°21'29 9.6
2015-May-22 10:32N 36°43' W 008°52'1111.3
2015-May-22 09:33N 36°44' W 008°38'  
2015-May-17 21:33N 36°35' W 008°34'1410.7
2015-May-17 20:12N 36°33' W 008°52'26 9.9
2015-May-17 17:31N 36°40' W 009°24'3110.5
2015-May-17 14:33N 37°09' W 009°39'2311.3
2015-May-17 12:33N 37°30' W 009°46'1211.7
2015-May-17 11:33N 37°42' W 009°49'1211.9
2015-May-17 10:33N 37°53' W 009°52'1211.5
2015-May-17 09:33N 38°04' W 009°55'1111.4
2015-May-17 08:33N 38°16' W 009°59'1211.4
2015-May-17 07:32N 38°27' W 010°02'1111.1
2015-May-17 06:33N 38°38' W 010°05'1110.8
2015-May-17 05:33N 38°48' W 010°06'  
2015-May-14 00:32N 50°06' W 002°22'1212.5
2015-May-13 23:33N 50°10' W 002°03'1413.7
2015-May-13 22:34N 50°14' W 001°43'  

Dump ship's entire track history